sensor_id;sensor_type;location;lat;lon;timestamp;temperature;humidity
5588;DHT22;2816;49.778;9.986;2022-11-15T00:02:27;7.30;99.90
5588;DHT22;2816;49.778;9.986;2022-11-15T00:04:54;7.30;99.90
5588;DHT22;2816;49.778;9.986;2022-11-15T00:07:21;7.30;99.90
5588;DHT22;2816;49.778;9.986;2022-11-15T00:09:48;7.40;99.90
5588;DHT22;2816;49.778;9.986;2022-11-15T00:12:15;7.40;99.90
5588;DHT22;2816;49.778;9.986;2022-11-15T00:14:42;7.40;99.90
5588;DHT22;2816;49.778;9.986;2022-11-15T00:17:09;7.40;99.90
5588;DHT22;2816;49.778;9.986;2022-11-15T00:19:37;7.40;99.90
5588;DHT22;2816;49.778;9.986;2022-11-15T00:22:04;7.40;99.90
5588;DHT22;2816;49.778;9.986;2022-11-15T00:24:31;7.40;99.90
5588;DHT22;2816;49.778;9.986;2022-11-15T00:26:58;7.40;99.90
5588;DHT22;2816;49.778;9.986;2022-11-15T00:29:25;7.40;99.90
5588;DHT22;2816;49.778;9.986;2022-11-15T00:31:52;7.40;99.90
5588;DHT22;2816;49.778;9.986;2022-11-15T00:34:20;7.40;99.90
5588;DHT22;2816;49.778;9.986;2022-11-15T00:36:49;7.40;99.90
5588;DHT22;2816;49.778;9.986;2022-11-15T00:39:16;7.40;99.90
5588;DHT22;2816;49.778;9.986;2022-11-15T00:41:42;7.40;99.90
5588;DHT22;2816;49.778;9.986;2022-11-15T00:44:09;7.40;99.90
5588;DHT22;2816;49.778;9.986;2022-11-15T00:46:36;7.40;99.90
5588;DHT22;2816;49.778;9.986;2022-11-15T00:49:03;7.40;99.90
5588;DHT22;2816;49.778;9.986;2022-11-15T00:51:30;7.40;99.90
5588;DHT22;2816;49.778;9.986;2022-11-15T00:53:59;7.40;99.90
5588;DHT22;2816;49.778;9.986;2022-11-15T00:56:25;7.40;99.90
5588;DHT22;2816;49.778;9.986;2022-11-15T00:58:52;7.40;99.90
5588;DHT22;2816;49.778;9.986;2022-11-15T01:01:21;7.40;99.90
5588;DHT22;2816;49.778;9.986;2022-11-15T01:03:48;7.40;99.90
5588;DHT22;2816;49.778;9.986;2022-11-15T01:06:15;7.40;99.90
5588;DHT22;2816;49.778;9.986;2022-11-15T01:08:42;7.40;99.90
5588;DHT22;2816;49.778;9.986;2022-11-15T01:11:11;7.40;99.90
5588;DHT22;2816;49.778;9.986;2022-11-15T01:13:39;7.40;99.90
5588;DHT22;2816;49.778;9.986;2022-11-15T01:16:08;7.40;99.90
5588;DHT22;2816;49.778;9.986;2022-11-15T01:18:36;7.40;99.90
5588;DHT22;2816;49.778;9.986;2022-11-15T01:21:07;7.40;99.90
5588;DHT22;2816;49.778;9.986;2022-11-15T01:23:35;7.30;99.90
5588;DHT22;2816;49.778;9.986;2022-11-15T01:26:04;7.40;99.90
5588;DHT22;2816;49.778;9.986;2022-11-15T01:28:34;7.30;99.90
5588;DHT22;2816;49.778;9.986;2022-11-15T01:31:02;7.30;99.90
5588;DHT22;2816;49.778;9.986;2022-11-15T01:33:30;7.30;99.90
5588;DHT22;2816;49.778;9.986;2022-11-15T01:35:58;7.20;99.90
5588;DHT22;2816;49.778;9.986;2022-11-15T01:38:29;7.20;99.90
5588;DHT22;2816;49.778;9.986;2022-11-15T01:40:56;7.30;99.90
5588;DHT22;2816;49.778;9.986;2022-11-15T01:43:26;7.20;99.90
5588;DHT22;2816;49.778;9.986;2022-11-15T01:45:58;7.20;99.90
5588;DHT22;2816;49.778;9.986;2022-11-15T01:48:33;7.20;99.90
5588;DHT22;2816;49.778;9.986;2022-11-15T01:51:02;7.20;99.90
5588;DHT22;2816;49.778;9.986;2022-11-15T01:53:32;7.20;99.90
5588;DHT22;2816;49.778;9.986;2022-11-15T01:56:01;7.10;99.90
5588;DHT22;2816;49.778;9.986;2022-11-15T01:58:29;7.10;99.90
5588;DHT22;2816;49.778;9.986;2022-11-15T02:00:57;7.10;99.90
5588;DHT22;2816;49.778;9.986;2022-11-15T02:03:30;7.10;99.90
5588;DHT22;2816;49.778;9.986;2022-11-15T02:06:00;7.20;99.90
5588;DHT22;2816;49.778;9.986;2022-11-15T02:08:27;7.20;99.90
5588;DHT22;2816;49.778;9.986;2022-11-15T02:10:54;7.10;99.90
5588;DHT22;2816;49.778;9.986;2022-11-15T02:13:21;7.10;99.90
5588;DHT22;2816;49.778;9.986;2022-11-15T02:16:02;7.10;99.90
5588;DHT22;2816;49.778;9.986;2022-11-15T02:18:34;7.20;99.90
5588;DHT22;2816;49.778;9.986;2022-11-15T02:21:13;7.20;99.90
5588;DHT22;2816;49.778;9.986;2022-11-15T02:24:13;7.20;99.90
5588;DHT22;2816;49.778;9.986;2022-11-15T02:30:03;7.30;99.90
5588;DHT22;2816;49.778;9.986;2022-11-15T02:32:36;7.30;99.90
5588;DHT22;2816;49.778;9.986;2022-11-15T02:35:15;7.20;99.90
5588;DHT22;2816;49.778;9.986;2022-11-15T02:37:47;7.20;99.90
5588;DHT22;2816;49.778;9.986;2022-11-15T02:40:30;7.20;99.90
5588;DHT22;2816;49.778;9.986;2022-11-15T02:43:06;7.20;99.90
5588;DHT22;2816;49.778;9.986;2022-11-15T02:45:56;7.20;99.90
5588;DHT22;2816;49.778;9.986;2022-11-15T02:48:26;7.10;99.90
5588;DHT22;2816;49.778;9.986;2022-11-15T02:50:54;7.10;99.90
5588;DHT22;2816;49.778;9.986;2022-11-15T02:53:24;7.10;99.90
5588;DHT22;2816;49.778;9.986;2022-11-15T02:55:51;7.00;99.90
5588;DHT22;2816;49.778;9.986;2022-11-15T02:58:44;6.90;99.90
5588;DHT22;2816;49.778;9.986;2022-11-15T03:01:20;6.90;99.90
5588;DHT22;2816;49.778;9.986;2022-11-15T03:03:59;6.90;99.90
5588;DHT22;2816;49.778;9.986;2022-11-15T03:06:36;6.80;99.90
5588;DHT22;2816;49.778;9.986;2022-11-15T03:09:09;6.70;99.90
5588;DHT22;2816;49.778;9.986;2022-11-15T03:11:42;6.70;99.90
5588;DHT22;2816;49.778;9.986;2022-11-15T03:14:19;6.70;99.90
5588;DHT22;2816;49.778;9.986;2022-11-15T03:16:54;6.60;99.90
5588;DHT22;2816;49.778;9.986;2022-11-15T03:19:27;6.50;99.90
5588;DHT22;2816;49.778;9.986;2022-11-15T03:21:59;6.50;99.90
5588;DHT22;2816;49.778;9.986;2022-11-15T03:24:29;6.50;99.90
5588;DHT22;2816;49.778;9.986;2022-11-15T03:26:59;6.40;99.90
5588;DHT22;2816;49.778;9.986;2022-11-15T03:29:31;6.40;99.90
5588;DHT22;2816;49.778;9.986;2022-11-15T03:32:02;6.40;99.90
5588;DHT22;2816;49.778;9.986;2022-11-15T03:34:33;6.30;99.90
5588;DHT22;2816;49.778;9.986;2022-11-15T03:37:01;6.30;99.90
5588;DHT22;2816;49.778;9.986;2022-11-15T03:39:29;6.30;99.90
5588;DHT22;2816;49.778;9.986;2022-11-15T03:42:04;6.30;99.90
5588;DHT22;2816;49.778;9.986;2022-11-15T03:44:40;6.30;99.90
5588;DHT22;2816;49.778;9.986;2022-11-15T03:47:11;6.30;99.90
5588;DHT22;2816;49.778;9.986;2022-11-15T03:49:44;6.30;99.90
5588;DHT22;2816;49.778;9.986;2022-11-15T03:52:11;6.40;99.90
5588;DHT22;2816;49.778;9.986;2022-11-15T03:54:48;6.30;99.90
5588;DHT22;2816;49.778;9.986;2022-11-15T03:57:16;6.30;99.90
5588;DHT22;2816;49.778;9.986;2022-11-15T03:59:43;6.30;99.90
5588;DHT22;2816;49.778;9.986;2022-11-15T04:02:10;6.30;99.90
5588;DHT22;2816;49.778;9.986;2022-11-15T04:04:36;6.30;99.90
5588;DHT22;2816;49.778;9.986;2022-11-15T04:07:06;6.20;99.90
5588;DHT22;2816;49.778;9.986;2022-11-15T04:09:33;6.30;99.90
5588;DHT22;2816;49.778;9.986;2022-11-15T04:12:20;6.20;99.90
5588;DHT22;2816;49.778;9.986;2022-11-15T04:14:56;6.10;99.90
5588;DHT22;2816;49.778;9.986;2022-11-15T04:17:34;6.10;99.90
5588;DHT22;2816;49.778;9.986;2022-11-15T04:20:03;6.00;99.90
5588;DHT22;2816;49.778;9.986;2022-11-15T04:22:51;5.90;99.90
5588;DHT22;2816;49.778;9.986;2022-11-15T04:25:36;5.90;99.90
5588;DHT22;2816;49.778;9.986;2022-11-15T04:28:03;5.80;99.90
5588;DHT22;2816;49.778;9.986;2022-11-15T04:30:30;5.80;99.90
5588;DHT22;2816;49.778;9.986;2022-11-15T04:32:57;5.80;99.90
5588;DHT22;2816;49.778;9.986;2022-11-15T04:35:24;5.70;99.90
5588;DHT22;2816;49.778;9.986;2022-11-15T04:37:52;5.70;99.90
5588;DHT22;2816;49.778;9.986;2022-11-15T04:40:19;5.70;99.90
5588;DHT22;2816;49.778;9.986;2022-11-15T04:42:46;5.60;99.90
5588;DHT22;2816;49.778;9.986;2022-11-15T04:45:13;5.60;99.90
5588;DHT22;2816;49.778;9.986;2022-11-15T04:47:43;5.70;99.90
5588;DHT22;2816;49.778;9.986;2022-11-15T04:50:10;5.70;99.90
5588;DHT22;2816;49.778;9.986;2022-11-15T04:52:39;5.60;99.90
5588;DHT22;2816;49.778;9.986;2022-11-15T04:55:07;5.60;99.90
5588;DHT22;2816;49.778;9.986;2022-11-15T04:57:34;5.60;99.90
5588;DHT22;2816;49.778;9.986;2022-11-15T05:00:02;5.60;99.90
5588;DHT22;2816;49.778;9.986;2022-11-15T05:02:29;5.60;99.90
5588;DHT22;2816;49.778;9.986;2022-11-15T05:05:16;5.50;99.90
5588;DHT22;2816;49.778;9.986;2022-11-15T05:07:42;5.40;99.90
5588;DHT22;2816;49.778;9.986;2022-11-15T05:10:11;5.40;99.90
5588;DHT22;2816;49.778;9.986;2022-11-15T05:12:38;5.40;99.90
5588;DHT22;2816;49.778;9.986;2022-11-15T05:15:06;5.30;99.90
5588;DHT22;2816;49.778;9.986;2022-11-15T05:17:33;5.40;99.90
5588;DHT22;2816;49.778;9.986;2022-11-15T05:20:00;5.30;99.90
5588;DHT22;2816;49.778;9.986;2022-11-15T05:22:28;5.30;99.90
5588;DHT22;2816;49.778;9.986;2022-11-15T05:24:55;5.30;99.90
5588;DHT22;2816;49.778;9.986;2022-11-15T05:27:23;5.30;99.90
5588;DHT22;2816;49.778;9.986;2022-11-15T05:29:50;5.20;99.90
5588;DHT22;2816;49.778;9.986;2022-11-15T05:32:18;5.20;99.90
5588;DHT22;2816;49.778;9.986;2022-11-15T05:34:45;5.20;99.90
5588;DHT22;2816;49.778;9.986;2022-11-15T05:37:13;5.20;99.90
5588;DHT22;2816;49.778;9.986;2022-11-15T05:39:40;5.20;99.90
5588;DHT22;2816;49.778;9.986;2022-11-15T05:42:09;5.20;99.90
5588;DHT22;2816;49.778;9.986;2022-11-15T05:44:40;5.10;99.90
5588;DHT22;2816;49.778;9.986;2022-11-15T05:47:10;5.10;99.90
5588;DHT22;2816;49.778;9.986;2022-11-15T05:49:40;5.10;99.90
5588;DHT22;2816;49.778;9.986;2022-11-15T05:52:10;5.10;99.90
5588;DHT22;2816;49.778;9.986;2022-11-15T05:54:38;5.20;99.90
5588;DHT22;2816;49.778;9.986;2022-11-15T05:57:06;5.20;99.90
5588;DHT22;2816;49.778;9.986;2022-11-15T05:59:35;5.10;99.90
5588;DHT22;2816;49.778;9.986;2022-11-15T06:02:03;5.10;99.90
5588;DHT22;2816;49.778;9.986;2022-11-15T06:04:30;5.10;99.90
5588;DHT22;2816;49.778;9.986;2022-11-15T06:06:58;5.10;99.90
5588;DHT22;2816;49.778;9.986;2022-11-15T06:09:25;5.00;99.90
5588;DHT22;2816;49.778;9.986;2022-11-15T06:11:52;5.00;99.90
5588;DHT22;2816;49.778;9.986;2022-11-15T06:14:19;5.00;99.90
5588;DHT22;2816;49.778;9.986;2022-11-15T06:16:46;4.90;99.90
5588;DHT22;2816;49.778;9.986;2022-11-15T06:19:14;4.90;99.90
5588;DHT22;2816;49.778;9.986;2022-11-15T06:21:42;4.90;99.90
5588;DHT22;2816;49.778;9.986;2022-11-15T06:24:09;4.90;99.90
5588;DHT22;2816;49.778;9.986;2022-11-15T06:26:36;4.90;99.90
5588;DHT22;2816;49.778;9.986;2022-11-15T06:29:04;4.90;99.90
5588;DHT22;2816;49.778;9.986;2022-11-15T06:31:31;4.90;99.90
5588;DHT22;2816;49.778;9.986;2022-11-15T06:34:01;4.90;99.90
5588;DHT22;2816;49.778;9.986;2022-11-15T06:36:29;4.80;99.90
5588;DHT22;2816;49.778;9.986;2022-11-15T06:38:57;4.90;99.90
5588;DHT22;2816;49.778;9.986;2022-11-15T06:41:23;4.90;99.90
5588;DHT22;2816;49.778;9.986;2022-11-15T06:43:50;4.90;99.90
5588;DHT22;2816;49.778;9.986;2022-11-15T06:46:17;4.90;99.90
5588;DHT22;2816;49.778;9.986;2022-11-15T06:48:44;4.90;99.90
5588;DHT22;2816;49.778;9.986;2022-11-15T06:51:11;5.00;99.90
5588;DHT22;2816;49.778;9.986;2022-11-15T06:53:39;5.00;99.90
5588;DHT22;2816;49.778;9.986;2022-11-15T06:56:07;5.00;99.90
5588;DHT22;2816;49.778;9.986;2022-11-15T06:58:34;5.10;99.90
5588;DHT22;2816;49.778;9.986;2022-11-15T07:01:03;5.10;99.90
5588;DHT22;2816;49.778;9.986;2022-11-15T07:03:30;5.20;99.90
5588;DHT22;2816;49.778;9.986;2022-11-15T07:05:57;5.20;99.90
5588;DHT22;2816;49.778;9.986;2022-11-15T07:08:27;5.30;99.90
5588;DHT22;2816;49.778;9.986;2022-11-15T07:10:57;5.30;99.90
5588;DHT22;2816;49.778;9.986;2022-11-15T07:13:25;5.30;99.90
5588;DHT22;2816;49.778;9.986;2022-11-15T07:15:52;5.30;99.90
5588;DHT22;2816;49.778;9.986;2022-11-15T07:18:19;5.30;99.90
5588;DHT22;2816;49.778;9.986;2022-11-15T07:20:46;5.20;99.90
5588;DHT22;2816;49.778;9.986;2022-11-15T07:23:13;5.20;99.90
5588;DHT22;2816;49.778;9.986;2022-11-15T07:25:40;5.10;99.90
5588;DHT22;2816;49.778;9.986;2022-11-15T07:28:08;5.10;99.90
5588;DHT22;2816;49.778;9.986;2022-11-15T07:30:35;5.10;99.90
5588;DHT22;2816;49.778;9.986;2022-11-15T07:33:04;5.20;99.90
5588;DHT22;2816;49.778;9.986;2022-11-15T07:35:30;5.20;99.90
5588;DHT22;2816;49.778;9.986;2022-11-15T07:37:59;5.10;99.90
5588;DHT22;2816;49.778;9.986;2022-11-15T07:40:27;5.10;99.90
5588;DHT22;2816;49.778;9.986;2022-11-15T07:42:59;5.10;99.90
5588;DHT22;2816;49.778;9.986;2022-11-15T07:45:28;5.10;99.90
5588;DHT22;2816;49.778;9.986;2022-11-15T07:47:56;5.20;99.90
5588;DHT22;2816;49.778;9.986;2022-11-15T07:50:25;5.20;99.90
5588;DHT22;2816;49.778;9.986;2022-11-15T07:52:54;5.20;99.90
5588;DHT22;2816;49.778;9.986;2022-11-15T07:55:22;5.20;99.90
5588;DHT22;2816;49.778;9.986;2022-11-15T07:57:49;5.20;99.90
5588;DHT22;2816;49.778;9.986;2022-11-15T08:00:17;5.20;99.90
5588;DHT22;2816;49.778;9.986;2022-11-15T08:02:46;5.20;99.90
5588;DHT22;2816;49.778;9.986;2022-11-15T08:05:12;5.30;99.90
5588;DHT22;2816;49.778;9.986;2022-11-15T08:07:39;5.30;99.90
5588;DHT22;2816;49.778;9.986;2022-11-15T08:10:08;5.30;99.90
5588;DHT22;2816;49.778;9.986;2022-11-15T08:12:36;5.30;99.90
5588;DHT22;2816;49.778;9.986;2022-11-15T08:15:04;5.30;99.90
5588;DHT22;2816;49.778;9.986;2022-11-15T08:17:31;5.30;99.90
5588;DHT22;2816;49.778;9.986;2022-11-15T08:20:00;5.40;99.90
5588;DHT22;2816;49.778;9.986;2022-11-15T08:22:28;5.40;99.90
5588;DHT22;2816;49.778;9.986;2022-11-15T08:24:55;5.40;99.90
5588;DHT22;2816;49.778;9.986;2022-11-15T08:27:22;5.50;99.90
5588;DHT22;2816;49.778;9.986;2022-11-15T08:29:49;5.50;99.90
5588;DHT22;2816;49.778;9.986;2022-11-15T08:32:16;5.60;99.90
5588;DHT22;2816;49.778;9.986;2022-11-15T08:34:43;5.60;99.90
5588;DHT22;2816;49.778;9.986;2022-11-15T08:37:12;5.60;99.90
5588;DHT22;2816;49.778;9.986;2022-11-15T08:39:39;5.60;99.90
5588;DHT22;2816;49.778;9.986;2022-11-15T08:42:06;5.70;99.90
5588;DHT22;2816;49.778;9.986;2022-11-15T08:44:33;5.80;99.90
5588;DHT22;2816;49.778;9.986;2022-11-15T08:47:00;5.80;99.90
5588;DHT22;2816;49.778;9.986;2022-11-15T08:49:26;5.80;99.90
5588;DHT22;2816;49.778;9.986;2022-11-15T08:51:53;5.90;99.90
5588;DHT22;2816;49.778;9.986;2022-11-15T08:54:22;5.90;99.90
5588;DHT22;2816;49.778;9.986;2022-11-15T08:56:48;6.00;99.90
5588;DHT22;2816;49.778;9.986;2022-11-15T08:59:17;6.10;99.90
5588;DHT22;2816;49.778;9.986;2022-11-15T09:01:44;6.20;99.90
5588;DHT22;2816;49.778;9.986;2022-11-15T09:04:11;6.20;99.90
5588;DHT22;2816;49.778;9.986;2022-11-15T09:06:38;6.30;99.90
5588;DHT22;2816;49.778;9.986;2022-11-15T09:09:05;6.40;99.90
5588;DHT22;2816;49.778;9.986;2022-11-15T09:11:33;6.50;99.90
5588;DHT22;2816;49.778;9.986;2022-11-15T09:14:00;6.50;99.90
5588;DHT22;2816;49.778;9.986;2022-11-15T09:16:27;6.70;99.90
5588;DHT22;2816;49.778;9.986;2022-11-15T09:18:54;6.80;99.90
5588;DHT22;2816;49.778;9.986;2022-11-15T09:21:21;6.80;99.90
5588;DHT22;2816;49.778;9.986;2022-11-15T09:23:50;6.90;99.90
5588;DHT22;2816;49.778;9.986;2022-11-15T09:26:18;7.10;99.90
5588;DHT22;2816;49.778;9.986;2022-11-15T09:28:47;7.20;99.90
5588;DHT22;2816;49.778;9.986;2022-11-15T09:31:14;7.40;99.90
5588;DHT22;2816;49.778;9.986;2022-11-15T09:33:43;7.40;99.90
5588;DHT22;2816;49.778;9.986;2022-11-15T09:36:10;7.60;99.90
5588;DHT22;2816;49.778;9.986;2022-11-15T09:38:37;7.70;99.90
5588;DHT22;2816;49.778;9.986;2022-11-15T09:44:32;7.80;99.90
5588;DHT22;2816;49.778;9.986;2022-11-15T09:47:28;8.00;99.90
5588;DHT22;2816;49.778;9.986;2022-11-15T09:50:01;7.80;99.90
5588;DHT22;2816;49.778;9.986;2022-11-15T09:52:36;8.00;99.90
5588;DHT22;2816;49.778;9.986;2022-11-15T09:55:05;8.00;99.90
5588;DHT22;2816;49.778;9.986;2022-11-15T09:57:39;8.20;99.90
5588;DHT22;2816;49.778;9.986;2022-11-15T10:00:15;8.20;99.90
5588;DHT22;2816;49.778;9.986;2022-11-15T10:02:58;8.30;99.90
5588;DHT22;2816;49.778;9.986;2022-11-15T10:05:29;8.40;99.90
5588;DHT22;2816;49.778;9.986;2022-11-15T10:08:01;8.60;99.90
5588;DHT22;2816;49.778;9.986;2022-11-15T10:10:35;8.90;99.90
5588;DHT22;2816;49.778;9.986;2022-11-15T10:13:06;9.10;99.90
5588;DHT22;2816;49.778;9.986;2022-11-15T10:15:42;9.40;99.90
5588;DHT22;2816;49.778;9.986;2022-11-15T10:18:16;9.50;99.90
5588;DHT22;2816;49.778;9.986;2022-11-15T10:20:49;9.70;99.90
5588;DHT22;2816;49.778;9.986;2022-11-15T10:23:18;9.80;99.90
5588;DHT22;2816;49.778;9.986;2022-11-15T10:25:46;9.90;99.90
5588;DHT22;2816;49.778;9.986;2022-11-15T10:28:22;9.90;99.90
5588;DHT22;2816;49.778;9.986;2022-11-15T10:30:54;10.00;99.90
5588;DHT22;2816;49.778;9.986;2022-11-15T10:33:26;10.00;99.90
5588;DHT22;2816;49.778;9.986;2022-11-15T10:36:19;10.10;99.90
5588;DHT22;2816;49.778;9.986;2022-11-15T10:38:55;10.20;99.90
5588;DHT22;2816;49.778;9.986;2022-11-15T10:41:30;10.20;99.90
5588;DHT22;2816;49.778;9.986;2022-11-15T10:44:16;10.20;99.90
5588;DHT22;2816;49.778;9.986;2022-11-15T10:46:47;10.20;99.90
5588;DHT22;2816;49.778;9.986;2022-11-15T10:49:17;10.30;99.90
5588;DHT22;2816;49.778;9.986;2022-11-15T10:51:47;10.30;99.90
5588;DHT22;2816;49.778;9.986;2022-11-15T10:54:18;10.40;99.90
5588;DHT22;2816;49.778;9.986;2022-11-15T10:56:50;10.60;99.90
5588;DHT22;2816;49.778;9.986;2022-11-15T10:59:23;10.70;99.90
5588;DHT22;2816;49.778;9.986;2022-11-15T11:01:52;10.80;99.90
5588;DHT22;2816;49.778;9.986;2022-11-15T11:04:19;11.00;99.90
5588;DHT22;2816;49.778;9.986;2022-11-15T11:06:48;11.00;99.90
5588;DHT22;2816;49.778;9.986;2022-11-15T11:09:28;11.10;99.90
5588;DHT22;2816;49.778;9.986;2022-11-15T11:11:56;11.10;99.90
5588;DHT22;2816;49.778;9.986;2022-11-15T11:14:24;11.20;99.90
5588;DHT22;2816;49.778;9.986;2022-11-15T11:16:57;11.30;99.90
5588;DHT22;2816;49.778;9.986;2022-11-15T11:19:46;11.40;99.90
5588;DHT22;2816;49.778;9.986;2022-11-15T11:22:20;11.40;99.90
5588;DHT22;2816;49.778;9.986;2022-11-15T11:24:56;11.50;99.90
5588;DHT22;2816;49.778;9.986;2022-11-15T11:27:36;11.50;99.90
5588;DHT22;2816;49.778;9.986;2022-11-15T11:30:14;11.70;99.90
5588;DHT22;2816;49.778;9.986;2022-11-15T11:33:07;11.70;99.90
5588;DHT22;2816;49.778;9.986;2022-11-15T11:35:50;11.80;99.90
5588;DHT22;2816;49.778;9.986;2022-11-15T11:38:37;11.90;99.90
5588;DHT22;2816;49.778;9.986;2022-11-15T11:41:12;12.00;99.90
5588;DHT22;2816;49.778;9.986;2022-11-15T11:43:48;12.00;99.90
5588;DHT22;2816;49.778;9.986;2022-11-15T11:46:38;12.10;99.90
5588;DHT22;2816;49.778;9.986;2022-11-15T11:49:18;12.10;99.90
5588;DHT22;2816;49.778;9.986;2022-11-15T11:51:51;12.20;99.90
5588;DHT22;2816;49.778;9.986;2022-11-15T11:54:24;12.20;99.90
5588;DHT22;2816;49.778;9.986;2022-11-15T11:56:53;12.20;99.90
5588;DHT22;2816;49.778;9.986;2022-11-15T11:59:32;12.30;99.90
5588;DHT22;2816;49.778;9.986;2022-11-15T12:02:07;12.30;99.90
5588;DHT22;2816;49.778;9.986;2022-11-15T12:04:40;12.30;99.90
5588;DHT22;2816;49.778;9.986;2022-11-15T12:07:13;12.30;99.90
5588;DHT22;2816;49.778;9.986;2022-11-15T12:09:47;12.40;99.90
5588;DHT22;2816;49.778;9.986;2022-11-15T12:12:23;12.40;99.90
5588;DHT22;2816;49.778;9.986;2022-11-15T12:14:55;12.30;99.90
5588;DHT22;2816;49.778;9.986;2022-11-15T12:17:24;12.30;99.90
5588;DHT22;2816;49.778;9.986;2022-11-15T12:19:56;12.30;99.90
5588;DHT22;2816;49.778;9.986;2022-11-15T12:22:28;12.30;99.90
5588;DHT22;2816;49.778;9.986;2022-11-15T12:25:03;12.30;99.90
5588;DHT22;2816;49.778;9.986;2022-11-15T12:27:35;12.30;99.90
5588;DHT22;2816;49.778;9.986;2022-11-15T12:30:09;12.30;99.90
5588;DHT22;2816;49.778;9.986;2022-11-15T12:32:39;12.40;99.90
5588;DHT22;2816;49.778;9.986;2022-11-15T12:35:25;12.40;99.90
5588;DHT22;2816;49.778;9.986;2022-11-15T12:37:54;12.30;99.90
5588;DHT22;2816;49.778;9.986;2022-11-15T12:40:28;12.40;99.90
5588;DHT22;2816;49.778;9.986;2022-11-15T12:46:02;12.30;99.90
5588;DHT22;2816;49.778;9.986;2022-11-15T12:48:47;12.30;99.90
5588;DHT22;2816;49.778;9.986;2022-11-15T12:51:16;12.20;99.90
5588;DHT22;2816;49.778;9.986;2022-11-15T12:53:43;12.20;99.90
5588;DHT22;2816;49.778;9.986;2022-11-15T12:56:24;12.20;99.90
5588;DHT22;2816;49.778;9.986;2022-11-15T12:58:54;12.20;99.90
5588;DHT22;2816;49.778;9.986;2022-11-15T13:01:58;12.30;99.90
5588;DHT22;2816;49.778;9.986;2022-11-15T13:04:28;12.30;99.90
5588;DHT22;2816;49.778;9.986;2022-11-15T13:06:58;12.30;99.90
5588;DHT22;2816;49.778;9.986;2022-11-15T13:09:50;12.40;99.90
5588;DHT22;2816;49.778;9.986;2022-11-15T13:12:49;12.40;99.90
5588;DHT22;2816;49.778;9.986;2022-11-15T13:15:52;12.40;99.90
5588;DHT22;2816;49.778;9.986;2022-11-15T13:18:37;12.40;99.90
5588;DHT22;2816;49.778;9.986;2022-11-15T13:21:19;12.40;99.90
5588;DHT22;2816;49.778;9.986;2022-11-15T13:24:12;12.40;99.90
5588;DHT22;2816;49.778;9.986;2022-11-15T13:26:39;12.40;99.90
5588;DHT22;2816;49.778;9.986;2022-11-15T13:29:15;12.50;99.90
5588;DHT22;2816;49.778;9.986;2022-11-15T13:31:44;12.50;99.90
5588;DHT22;2816;49.778;9.986;2022-11-15T13:34:21;12.50;99.90
5588;DHT22;2816;49.778;9.986;2022-11-15T13:36:49;12.50;99.90
5588;DHT22;2816;49.778;9.986;2022-11-15T13:39:27;12.60;99.90
5588;DHT22;2816;49.778;9.986;2022-11-15T13:41:54;12.60;99.90
5588;DHT22;2816;49.778;9.986;2022-11-15T13:44:23;12.60;99.90
5588;DHT22;2816;49.778;9.986;2022-11-15T13:47:14;12.60;99.90
5588;DHT22;2816;49.778;9.986;2022-11-15T13:49:41;12.60;99.90
5588;DHT22;2816;49.778;9.986;2022-11-15T13:52:13;12.60;99.90
5588;DHT22;2816;49.778;9.986;2022-11-15T13:54:44;12.70;99.90
5588;DHT22;2816;49.778;9.986;2022-11-15T13:57:15;12.60;99.90
5588;DHT22;2816;49.778;9.986;2022-11-15T13:59:46;12.70;99.90
5588;DHT22;2816;49.778;9.986;2022-11-15T14:02:17;12.70;99.90
5588;DHT22;2816;49.778;9.986;2022-11-15T14:04:47;12.70;99.90
5588;DHT22;2816;49.778;9.986;2022-11-15T14:07:17;12.60;99.90
5588;DHT22;2816;49.778;9.986;2022-11-15T14:09:47;12.60;99.90
5588;DHT22;2816;49.778;9.986;2022-11-15T14:12:27;12.60;99.90
5588;DHT22;2816;49.778;9.986;2022-11-15T14:14:54;12.50;99.90
5588;DHT22;2816;49.778;9.986;2022-11-15T14:17:34;12.50;99.90
5588;DHT22;2816;49.778;9.986;2022-11-15T14:20:02;12.50;99.90
5588;DHT22;2816;49.778;9.986;2022-11-15T14:22:30;12.50;99.90
5588;DHT22;2816;49.778;9.986;2022-11-15T14:25:18;12.50;99.90
5588;DHT22;2816;49.778;9.986;2022-11-15T14:28:08;12.40;99.90
5588;DHT22;2816;49.778;9.986;2022-11-15T14:30:36;12.40;99.90
5588;DHT22;2816;49.778;9.986;2022-11-15T14:33:18;12.40;99.90
5588;DHT22;2816;49.778;9.986;2022-11-15T14:35:45;12.30;99.90
5588;DHT22;2816;49.778;9.986;2022-11-15T14:38:12;12.30;99.90
5588;DHT22;2816;49.778;9.986;2022-11-15T14:40:41;12.30;99.90
5588;DHT22;2816;49.778;9.986;2022-11-15T14:43:09;12.30;99.90
5588;DHT22;2816;49.778;9.986;2022-11-15T14:45:37;12.30;99.90
5588;DHT22;2816;49.778;9.986;2022-11-15T14:48:05;12.30;99.90
5588;DHT22;2816;49.778;9.986;2022-11-15T14:50:33;12.30;99.90
5588;DHT22;2816;49.778;9.986;2022-11-15T14:53:00;12.20;99.90
5588;DHT22;2816;49.778;9.986;2022-11-15T14:55:29;12.20;99.90
5588;DHT22;2816;49.778;9.986;2022-11-15T14:57:59;12.00;99.90
5588;DHT22;2816;49.778;9.986;2022-11-15T15:00:27;11.90;99.90
5588;DHT22;2816;49.778;9.986;2022-11-15T15:02:55;11.80;99.90
5588;DHT22;2816;49.778;9.986;2022-11-15T15:05:24;11.70;99.90
5588;DHT22;2816;49.778;9.986;2022-11-15T15:07:51;11.60;99.90
5588;DHT22;2816;49.778;9.986;2022-11-15T15:10:19;11.60;99.90
5588;DHT22;2816;49.778;9.986;2022-11-15T15:12:47;11.50;99.90
5588;DHT22;2816;49.778;9.986;2022-11-15T15:15:17;11.50;99.90
5588;DHT22;2816;49.778;9.986;2022-11-15T15:17:45;11.40;99.90
5588;DHT22;2816;49.778;9.986;2022-11-15T15:20:12;11.30;99.90
5588;DHT22;2816;49.778;9.986;2022-11-15T15:22:41;11.30;99.90
5588;DHT22;2816;49.778;9.986;2022-11-15T15:25:22;11.30;99.90
5588;DHT22;2816;49.778;9.986;2022-11-15T15:27:49;11.20;99.90
5588;DHT22;2816;49.778;9.986;2022-11-15T15:30:18;11.10;99.90
5588;DHT22;2816;49.778;9.986;2022-11-15T15:32:45;11.10;99.90
5588;DHT22;2816;49.778;9.986;2022-11-15T15:35:13;11.10;99.90
5588;DHT22;2816;49.778;9.986;2022-11-15T15:37:40;11.00;99.90
5588;DHT22;2816;49.778;9.986;2022-11-15T15:40:13;11.00;99.90
5588;DHT22;2816;49.778;9.986;2022-11-15T15:42:41;11.00;99.90
5588;DHT22;2816;49.778;9.986;2022-11-15T15:45:09;11.00;99.90
5588;DHT22;2816;49.778;9.986;2022-11-15T15:47:38;11.00;99.90
5588;DHT22;2816;49.778;9.986;2022-11-15T15:50:14;11.00;99.90
5588;DHT22;2816;49.778;9.986;2022-11-15T15:52:43;10.90;99.90
5588;DHT22;2816;49.778;9.986;2022-11-15T15:55:10;10.90;99.90
5588;DHT22;2816;49.778;9.986;2022-11-15T15:57:37;10.90;99.90
5588;DHT22;2816;49.778;9.986;2022-11-15T16:00:05;10.80;99.90
5588;DHT22;2816;49.778;9.986;2022-11-15T16:02:32;10.80;99.90
5588;DHT22;2816;49.778;9.986;2022-11-15T16:05:01;10.70;99.90
5588;DHT22;2816;49.778;9.986;2022-11-15T16:07:28;10.70;99.90
5588;DHT22;2816;49.778;9.986;2022-11-15T16:09:55;10.70;99.90
5588;DHT22;2816;49.778;9.986;2022-11-15T16:12:29;10.70;99.90
5588;DHT22;2816;49.778;9.986;2022-11-15T16:14:56;10.70;99.90
5588;DHT22;2816;49.778;9.986;2022-11-15T16:17:25;10.70;99.90
5588;DHT22;2816;49.778;9.986;2022-11-15T16:19:52;10.60;99.90
5588;DHT22;2816;49.778;9.986;2022-11-15T16:22:22;10.60;99.90
5588;DHT22;2816;49.778;9.986;2022-11-15T16:24:49;10.60;99.90
5588;DHT22;2816;49.778;9.986;2022-11-15T16:27:18;10.60;99.90
5588;DHT22;2816;49.778;9.986;2022-11-15T16:29:46;10.50;99.90
5588;DHT22;2816;49.778;9.986;2022-11-15T16:32:14;10.50;99.90
5588;DHT22;2816;49.778;9.986;2022-11-15T16:34:41;10.50;99.90
5588;DHT22;2816;49.778;9.986;2022-11-15T16:37:18;10.50;99.90
5588;DHT22;2816;49.778;9.986;2022-11-15T16:39:49;10.50;99.90
5588;DHT22;2816;49.778;9.986;2022-11-15T16:42:16;10.50;99.90
5588;DHT22;2816;49.778;9.986;2022-11-15T16:44:43;10.40;99.90
5588;DHT22;2816;49.778;9.986;2022-11-15T16:47:16;10.40;99.90